sensor_id;sensor_type;location;lat;lon;timestamp;pressure;altitude;pressure_sealevel;temperature;humidity
23619;BME280;18207;32.078;34.818;2022-07-04T00:01:55;100005.78;;;32.12;46.44
23619;BME280;18207;32.078;34.818;2022-07-04T00:04:26;99997.69;;;32.10;47.05
23619;BME280;18207;32.078;34.818;2022-07-04T00:06:58;99998.94;;;32.09;46.54
23619;BME280;18207;32.078;34.818;2022-07-04T00:09:31;100004.63;;;32.09;46.75
23619;BME280;18207;32.078;34.818;2022-07-04T00:12:02;100005.06;;;32.08;46.62
23619;BME280;18207;32.078;34.818;2022-07-04T00:14:33;100010.34;;;32.06;46.56
23619;BME280;18207;32.078;34.818;2022-07-04T00:17:08;100010.78;;;32.04;46.54
23619;BME280;18207;32.078;34.818;2022-07-04T00:19:41;100006.72;;;32.02;46.75
23619;BME280;18207;32.078;34.818;2022-07-04T00:22:12;100006.38;;;32.00;46.58
23619;BME280;18207;32.078;34.818;2022-07-04T00:24:45;100005.56;;;31.99;46.68
23619;BME280;18207;32.078;34.818;2022-07-04T00:27:16;100006.00;;;31.98;47.18
23619;BME280;18207;32.078;34.818;2022-07-04T00:29:47;99999.50;;;31.97;47.04
23619;BME280;18207;32.078;34.818;2022-07-04T00:32:18;100001.56;;;31.97;47.19
23619;BME280;18207;32.078;34.818;2022-07-04T00:34:49;100012.94;;;31.97;46.88
23619;BME280;18207;32.078;34.818;2022-07-04T00:37:21;100007.69;;;31.95;47.14
23619;BME280;18207;32.078;34.818;2022-07-04T00:39:54;100006.84;;;31.95;46.72
23619;BME280;18207;32.078;34.818;2022-07-04T00:42:26;100015.38;;;31.95;47.18
23619;BME280;18207;32.078;34.818;2022-07-04T00:44:59;100014.59;;;31.94;46.74
23619;BME280;18207;32.078;34.818;2022-07-04T00:47:30;100007.31;;;31.93;46.99
23619;BME280;18207;32.078;34.818;2022-07-04T00:50:01;100010.94;;;31.94;46.75
23619;BME280;18207;32.078;34.818;2022-07-04T00:52:32;100010.94;;;31.94;47.01
23619;BME280;18207;32.078;34.818;2022-07-04T00:55:08;100006.06;;;31.94;46.68
23619;BME280;18207;32.078;34.818;2022-07-04T00:57:40;100010.94;;;31.94;46.67
23619;BME280;18207;32.078;34.818;2022-07-04T01:00:11;100013.00;;;31.93;46.79
23619;BME280;18207;32.078;34.818;2022-07-04T01:02:43;100007.72;;;31.92;47.44
23619;BME280;18207;32.078;34.818;2022-07-04T01:05:15;100018.69;;;31.93;47.02
23619;BME280;18207;32.078;34.818;2022-07-04T01:07:47;100024.38;;;31.93;46.92
23619;BME280;18207;32.078;34.818;2022-07-04T01:10:21;100014.22;;;31.92;47.09
23619;BME280;18207;32.078;34.818;2022-07-04T01:12:53;100010.56;;;31.92;46.84
23619;BME280;18207;32.078;34.818;2022-07-04T01:15:25;100014.66;;;31.91;46.99
23619;BME280;18207;32.078;34.818;2022-07-04T01:17:56;100013.84;;;31.90;47.53
23619;BME280;18207;32.078;34.818;2022-07-04T01:20:35;100017.91;;;31.89;47.38
23619;BME280;18207;32.078;34.818;2022-07-04T01:23:07;100022.81;;;31.89;47.16
23619;BME280;18207;32.078;34.818;2022-07-04T01:25:38;100020.75;;;31.89;47.39
23619;BME280;18207;32.078;34.818;2022-07-04T01:28:09;100019.97;;;31.89;47.48
23619;BME280;18207;32.078;34.818;2022-07-04T01:30:40;100021.19;;;31.88;46.84
23619;BME280;18207;32.078;34.818;2022-07-04T01:33:11;100026.88;;;31.88;47.46
23619;BME280;18207;32.078;34.818;2022-07-04T01:35:46;100028.50;;;31.89;47.47
23619;BME280;18207;32.078;34.818;2022-07-04T01:38:17;100032.56;;;31.88;47.47
23619;BME280;18207;32.078;34.818;2022-07-04T01:40:48;100032.56;;;31.88;47.01
23619;BME280;18207;32.078;34.818;2022-07-04T01:43:19;100035.41;;;31.88;47.45
23619;BME280;18207;32.078;34.818;2022-07-04T01:45:50;100036.66;;;31.87;47.51
23619;BME280;18207;32.078;34.818;2022-07-04T01:48:21;100035.84;;;31.86;47.05
23619;BME280;18207;32.078;34.818;2022-07-04T01:50:54;100032.19;;;31.86;47.05
23619;BME280;18207;32.078;34.818;2022-07-04T01:53:25;100039.94;;;31.85;46.93
23619;BME280;18207;32.078;34.818;2022-07-04T01:55:56;100020.03;;;31.85;47.20
23619;BME280;18207;32.078;34.818;2022-07-04T01:58:27;100035.03;;;31.86;47.43
23619;BME280;18207;32.078;34.818;2022-07-04T02:00:58;100037.09;;;31.85;47.54
23619;BME280;18207;32.078;34.818;2022-07-04T02:03:45;100033.03;;;31.83;47.11
23619;BME280;18207;32.078;34.818;2022-07-04T02:06:19;100037.50;;;31.84;47.49
23619;BME280;18207;32.078;34.818;2022-07-04T02:08:50;100035.88;;;31.83;47.44
23619;BME280;18207;32.078;34.818;2022-07-04T02:11:39;100039.16;;;31.81;47.52
23619;BME280;18207;32.078;34.818;2022-07-04T02:14:26;100035.16;;;31.79;47.73
23619;BME280;18207;32.078;34.818;2022-07-04T02:16:57;100033.91;;;31.80;47.19
23619;BME280;18207;32.078;34.818;2022-07-04T02:19:29;100032.31;;;31.79;47.68
23619;BME280;18207;32.078;34.818;2022-07-04T02:22:03;100036.38;;;31.78;47.20
23619;BME280;18207;32.078;34.818;2022-07-04T02:24:35;100038.84;;;31.76;47.49
23619;BME280;18207;32.078;34.818;2022-07-04T02:27:06;100037.59;;;31.77;47.41
23619;BME280;18207;32.078;34.818;2022-07-04T02:29:40;100040.88;;;31.75;47.57
23619;BME280;18207;32.078;34.818;2022-07-04T02:32:12;100037.22;;;31.75;47.62
23619;BME280;18207;32.078;34.818;2022-07-04T02:34:44;100037.22;;;31.75;47.67
23619;BME280;18207;32.078;34.818;2022-07-04T02:37:18;100036.84;;;31.73;47.80
23619;BME280;18207;32.078;34.818;2022-07-04T02:39:49;100038.91;;;31.72;47.61
23619;BME280;18207;32.078;34.818;2022-07-04T02:42:19;100034.44;;;31.71;47.27
23619;BME280;18207;32.078;34.818;2022-07-04T02:44:51;100046.25;;;31.70;47.77
23619;BME280;18207;32.078;34.818;2022-07-04T02:47:22;100045.03;;;31.71;47.67
23619;BME280;18207;32.078;34.818;2022-07-04T02:49:53;100043.41;;;31.70;47.59
23619;BME280;18207;32.078;34.818;2022-07-04T02:52:26;100041.78;;;31.69;47.22
23619;BME280;18207;32.078;34.818;2022-07-04T02:54:57;100050.72;;;31.67;47.15
23619;BME280;18207;32.078;34.818;2022-07-04T02:57:29;100047.88;;;31.67;47.20
23619;BME280;18207;32.078;34.818;2022-07-04T02:59:59;100052.00;;;31.66;47.21
23619;BME280;18207;32.078;34.818;2022-07-04T03:02:30;100051.16;;;31.66;47.82
23619;BME280;18207;32.078;34.818;2022-07-04T03:05:02;100054.00;;;31.66;47.32
23619;BME280;18207;32.078;34.818;2022-07-04T03:07:36;100048.75;;;31.64;47.26
23619;BME280;18207;32.078;34.818;2022-07-04T03:10:07;100056.06;;;31.65;47.90
23619;BME280;18207;32.078;34.818;2022-07-04T03:12:39;100058.06;;;31.65;47.30
23619;BME280;18207;32.078;34.818;2022-07-04T03:15:10;100054.44;;;31.64;47.17
23619;BME280;18207;32.078;34.818;2022-07-04T03:17:41;100061.34;;;31.63;47.36
23619;BME280;18207;32.078;34.818;2022-07-04T03:20:13;100066.22;;;31.63;47.73
23619;BME280;18207;32.078;34.818;2022-07-04T03:22:46;100063.38;;;31.63;47.29
23619;BME280;18207;32.078;34.818;2022-07-04T03:25:17;100062.59;;;31.62;47.82
23619;BME280;18207;32.078;34.818;2022-07-04T03:27:48;100063.81;;;31.61;47.26
23619;BME280;18207;32.078;34.818;2022-07-04T03:30:18;100066.22;;;31.63;47.65
23619;BME280;18207;32.078;34.818;2022-07-04T03:32:50;100075.56;;;31.63;47.11
23619;BME280;18207;32.078;34.818;2022-07-04T03:35:21;100077.59;;;31.63;47.76
23619;BME280;18207;32.078;34.818;2022-07-04T03:37:55;100077.19;;;31.64;47.58
23619;BME280;18207;32.078;34.818;2022-07-04T03:40:26;100074.34;;;31.64;47.18
23619;BME280;18207;32.078;34.818;2022-07-04T03:43:00;100077.19;;;31.64;47.74
23619;BME280;18207;32.078;34.818;2022-07-04T03:45:31;100076.34;;;31.64;47.57
23619;BME280;18207;32.078;34.818;2022-07-04T03:48:02;100073.53;;;31.64;47.71
23619;BME280;18207;32.078;34.818;2022-07-04T03:50:33;100084.09;;;31.63;47.89
23619;BME280;18207;32.078;34.818;2022-07-04T03:53:05;100075.13;;;31.65;47.64
23619;BME280;18207;32.078;34.818;2022-07-04T03:55:36;100090.16;;;31.65;47.73
23619;BME280;18207;32.078;34.818;2022-07-04T03:58:07;100085.72;;;31.64;47.75
23619;BME280;18207;32.078;34.818;2022-07-04T04:00:38;100080.44;;;31.63;47.18
23619;BME280;18207;32.078;34.818;2022-07-04T04:03:11;100081.69;;;31.62;47.22
23619;BME280;18207;32.078;34.818;2022-07-04T04:05:55;100083.28;;;31.63;47.58
23619;BME280;18207;32.078;34.818;2022-07-04T04:08:29;100093.41;;;31.64;47.78
23619;BME280;18207;32.078;34.818;2022-07-04T04:11:00;100082.47;;;31.62;47.21
23619;BME280;18207;32.078;34.818;2022-07-04T04:13:31;100095.84;;;31.65;47.20
23619;BME280;18207;32.078;34.818;2022-07-04T04:16:02;100088.09;;;31.66;47.56
23619;BME280;18207;32.078;34.818;2022-07-04T04:18:33;100084.03;;;31.67;47.62
23619;BME280;18207;32.078;34.818;2022-07-04T04:21:05;100087.25;;;31.69;47.27
23619;BME280;18207;32.078;34.818;2022-07-04T04:23:38;100077.06;;;31.71;47.21
23619;BME280;18207;32.078;34.818;2022-07-04T04:26:10;100084.38;;;31.72;47.28
23619;BME280;18207;32.078;34.818;2022-07-04T04:28:40;100079.47;;;31.73;47.30
23619;BME280;18207;32.078;34.818;2022-07-04T04:31:12;100086.38;;;31.75;47.74
23619;BME280;18207;32.078;34.818;2022-07-04T04:33:43;100087.53;;;31.78;47.53
23619;BME280;18207;32.078;34.818;2022-07-04T04:36:14;100083.41;;;31.82;47.61
23619;BME280;18207;32.078;34.818;2022-07-04T04:38:47;100082.56;;;31.85;47.66
23619;BME280;18207;32.078;34.818;2022-07-04T04:41:18;100089.44;;;31.88;47.80
23619;BME280;18207;32.078;34.818;2022-07-04T04:43:49;100090.59;;;31.90;47.75
23619;BME280;18207;32.078;34.818;2022-07-04T04:46:20;100094.63;;;31.93;47.96
23619;BME280;18207;32.078;34.818;2022-07-04T04:48:51;100092.97;;;31.95;47.26
23619;BME280;18207;32.078;34.818;2022-07-04T04:51:23;100081.97;;;31.97;48.02
23619;BME280;18207;32.078;34.818;2022-07-04T04:53:56;100092.91;;;31.99;47.39
23619;BME280;18207;32.078;34.818;2022-07-04T04:56:27;100087.22;;;31.99;47.69
23619;BME280;18207;32.078;34.818;2022-07-04T04:58:58;100084.34;;;32.02;47.60
23619;BME280;18207;32.078;34.818;2022-07-04T05:01:30;100083.47;;;32.05;48.14
23619;BME280;18207;32.078;34.818;2022-07-04T05:04:09;100085.47;;;32.08;47.94
23619;BME280;18207;32.078;34.818;2022-07-04T05:06:42;100085.84;;;32.10;47.56
23619;BME280;18207;32.078;34.818;2022-07-04T05:09:16;100085.81;;;32.14;47.55
23619;BME280;18207;32.078;34.818;2022-07-04T05:11:48;100083.34;;;32.16;47.67
23619;BME280;18207;32.078;34.818;2022-07-04T05:14:19;100082.47;;;32.19;47.48
23619;BME280;18207;32.078;34.818;2022-07-04T05:16:50;100085.25;;;32.22;47.63
23619;BME280;18207;32.078;34.818;2022-07-04T05:19:21;100080.75;;;32.24;48.03
23619;BME280;18207;32.078;34.818;2022-07-04T05:21:52;100078.28;;;32.26;47.59
23619;BME280;18207;32.078;34.818;2022-07-04T05:24:25;100083.53;;;32.28;47.73
23619;BME280;18207;32.078;34.818;2022-07-04T05:26:56;100085.53;;;32.31;47.55
23619;BME280;18207;32.078;34.818;2022-07-04T05:29:27;100083.84;;;32.33;47.91
23619;BME280;18207;32.078;34.818;2022-07-04T05:32:02;100088.25;;;32.38;48.06
23619;BME280;18207;32.078;34.818;2022-07-04T05:34:33;100084.53;;;32.41;48.04
23619;BME280;18207;32.078;34.818;2022-07-04T05:37:05;100083.25;;;32.45;47.93
23619;BME280;18207;32.078;34.818;2022-07-04T05:39:38;100074.19;;;32.50;47.51
23619;BME280;18207;32.078;34.818;2022-07-04T05:42:10;100077.81;;;32.54;47.54
23619;BME280;18207;32.078;34.818;2022-07-04T05:44:40;100075.66;;;32.62;48.12
23619;BME280;18207;32.078;34.818;2022-07-04T05:47:12;100076.84;;;32.64;48.12
23619;BME280;18207;32.078;34.818;2022-07-04T05:49:43;100080.44;;;32.68;47.98
23619;BME280;18207;32.078;34.818;2022-07-04T05:52:14;100071.81;;;32.72;48.00
23619;BME280;18207;32.078;34.818;2022-07-04T05:54:47;100082.69;;;32.77;47.99
23619;BME280;18207;32.078;34.818;2022-07-04T05:57:18;100076.16;;;32.80;48.00
23619;BME280;18207;32.078;34.818;2022-07-04T05:59:49;100078.47;;;32.85;47.64
23619;BME280;18207;32.078;34.818;2022-07-04T06:02:20;100086.16;;;32.88;48.10
23619;BME280;18207;32.078;34.818;2022-07-04T06:04:51;100082.81;;;32.93;47.98
23619;BME280;18207;32.078;34.818;2022-07-04T06:07:21;100082.75;;;32.96;47.76
23619;BME280;18207;32.078;34.818;2022-07-04T06:09:54;100076.19;;;32.99;47.50
23619;BME280;18207;32.078;34.818;2022-07-04T06:12:25;100079.38;;;33.01;48.04
23619;BME280;18207;32.078;34.818;2022-07-04T06:14:56;100081.81;;;33.03;48.08
23619;BME280;18207;32.078;34.818;2022-07-04T06:17:27;100077.72;;;33.04;47.66
23619;BME280;18207;32.078;34.818;2022-07-04T06:20:00;100082.13;;;33.08;48.04
23619;BME280;18207;32.078;34.818;2022-07-04T06:22:40;100081.63;;;33.13;47.94
23619;BME280;18207;32.078;34.818;2022-07-04T06:25:16;100073.81;;;33.17;48.03
23619;BME280;18207;32.078;34.818;2022-07-04T06:27:48;100083.91;;;33.21;47.86
23619;BME280;18207;32.078;34.818;2022-07-04T06:30:20;100071.19;;;33.26;47.78
23619;BME280;18207;32.078;34.818;2022-07-04T06:32:54;100071.50;;;33.31;48.03
23619;BME280;18207;32.078;34.818;2022-07-04T06:35:29;100069.72;;;33.37;47.75
23619;BME280;18207;32.078;34.818;2022-07-04T06:38:25;100070.88;;;33.40;47.32
23619;BME280;18207;32.078;34.818;2022-07-04T06:40:59;100076.50;;;33.43;47.35
23619;BME280;18207;32.078;34.818;2022-07-04T06:43:30;100075.22;;;33.48;47.93
23619;BME280;18207;32.078;34.818;2022-07-04T06:46:00;100075.84;;;33.55;47.78
23619;BME280;18207;32.078;34.818;2022-07-04T06:48:32;100065.22;;;33.59;47.97
23619;BME280;18207;32.078;34.818;2022-07-04T06:51:03;100066.28;;;33.65;47.28
23619;BME280;18207;32.078;34.818;2022-07-04T06:53:35;100069.50;;;33.67;47.91
23619;BME280;18207;32.078;34.818;2022-07-04T06:56:08;100072.63;;;33.73;47.74
23619;BME280;18207;32.078;34.818;2022-07-04T06:58:39;100068.47;;;33.77;47.76
23619;BME280;18207;32.078;34.818;2022-07-04T07:01:10;100078.53;;;33.82;47.49
23619;BME280;18207;32.078;34.818;2022-07-04T07:03:42;100070.72;;;33.86;47.21
23619;BME280;18207;32.078;34.818;2022-07-04T07:06:13;100079.56;;;33.91;47.69
23619;BME280;18207;32.078;34.818;2022-07-04T07:08:45;100080.25;;;33.95;47.29
23619;BME280;18207;32.078;34.818;2022-07-04T07:11:18;100081.78;;;34.00;47.06
23619;BME280;18207;32.078;34.818;2022-07-04T07:13:51;100073.13;;;34.03;47.47
23619;BME280;18207;32.078;34.818;2022-07-04T07:16:22;100076.72;;;34.07;47.05
23619;BME280;18207;32.078;34.818;2022-07-04T07:18:54;100074.97;;;34.13;47.32
23619;BME280;18207;32.078;34.818;2022-07-04T07:21:26;100076.47;;;34.17;46.80
23619;BME280;18207;32.078;34.818;2022-07-04T07:23:57;100079.28;;;34.21;46.81
23619;BME280;18207;32.078;34.818;2022-07-04T07:26:31;100077.47;;;34.27;47.45
23619;BME280;18207;32.078;34.818;2022-07-04T07:29:02;100087.56;;;34.31;47.24
23619;BME280;18207;32.078;34.818;2022-07-04T07:31:34;100082.56;;;34.35;46.92
23619;BME280;18207;32.078;34.818;2022-07-04T07:34:05;100079.63;;;34.39;47.20
23619;BME280;18207;32.078;34.818;2022-07-04T07:36:35;100084.44;;;34.42;46.87
23619;BME280;18207;32.078;34.818;2022-07-04T07:39:06;100071.66;;;34.46;47.17
23619;BME280;18207;32.078;34.818;2022-07-04T07:41:38;100078.97;;;34.47;46.51
23619;BME280;18207;32.078;34.818;2022-07-04T07:44:10;100084.25;;;34.49;47.26
23619;BME280;18207;32.078;34.818;2022-07-04T07:46:41;100081.31;;;34.52;47.02
23619;BME280;18207;32.078;34.818;2022-07-04T07:49:12;100085.31;;;34.55;46.64
23619;BME280;18207;32.078;34.818;2022-07-04T07:51:44;100073.84;;;34.58;46.99
23619;BME280;18207;32.078;34.818;2022-07-04T07:54:15;100085.97;;;34.62;46.58
23619;BME280;18207;32.078;34.818;2022-07-04T07:57:10;100086.34;;;34.64;46.47
23619;BME280;18207;32.078;34.818;2022-07-04T07:59:40;100088.63;;;34.69;46.61
23619;BME280;18207;32.078;34.818;2022-07-04T08:02:13;100082.84;;;34.73;46.19
23619;BME280;18207;32.078;34.818;2022-07-04T08:04:43;100087.19;;;34.77;46.49
23619;BME280;18207;32.078;34.818;2022-07-04T08:07:12;100084.25;;;34.81;46.21
23619;BME280;18207;32.078;34.818;2022-07-04T08:09:51;100087.03;;;34.84;46.11
23619;BME280;18207;32.078;34.818;2022-07-04T08:12:25;100080.84;;;34.86;46.27
23619;BME280;18207;32.078;34.818;2022-07-04T08:14:56;100079.50;;;34.90;46.31
23619;BME280;18207;32.078;34.818;2022-07-04T08:17:34;100085.94;;;34.94;46.16
23619;BME280;18207;32.078;34.818;2022-07-04T08:20:06;100081.38;;;34.96;45.92
23619;BME280;18207;32.078;34.818;2022-07-04T08:22:37;100073.16;;;34.98;46.29
23619;BME280;18207;32.078;34.818;2022-07-04T08:25:09;100082.53;;;34.99;46.42
23619;BME280;18207;32.078;34.818;2022-07-04T08:27:45;100075.09;;;35.01;46.39
23619;BME280;18207;32.078;34.818;2022-07-04T08:30:17;100074.66;;;35.03;45.81
23619;BME280;18207;32.078;34.818;2022-07-04T08:32:47;100080.31;;;35.06;46.11
23619;BME280;18207;32.078;34.818;2022-07-04T08:35:19;100077.81;;;35.08;46.23
23619;BME280;18207;32.078;34.818;2022-07-04T08:37:50;100072.88;;;35.09;46.08
23619;BME280;18207;32.078;34.818;2022-07-04T08:40:23;100075.75;;;35.09;45.54
23619;BME280;18207;32.078;34.818;2022-07-04T08:42:58;100071.16;;;35.11;45.52
23619;BME280;18207;32.078;34.818;2022-07-04T08:45:31;100076.88;;;35.11;46.05
23619;BME280;18207;32.078;34.818;2022-07-04T08:48:06;100074.38;;;35.13;45.71
23619;BME280;18207;32.078;34.818;2022-07-04T08:50:43;100066.63;;;35.14;45.29
23619;BME280;18207;32.078;34.818;2022-07-04T08:53:19;100076.00;;;35.14;45.76
23619;BME280;18207;32.078;34.818;2022-07-04T08:55:53;100063.78;;;35.14;45.61
23619;BME280;18207;32.078;34.818;2022-07-04T08:58:47;100072.34;;;35.14;45.44
23619;BME280;18207;32.078;34.818;2022-07-04T09:01:19;100071.88;;;35.15;44.98
23619;BME280;18207;32.078;34.818;2022-07-04T09:03:51;100062.84;;;35.17;45.17
23619;BME280;18207;32.078;34.818;2022-07-04T09:06:25;100064.47;;;35.18;45.46
23619;BME280;18207;32.078;34.818;2022-07-04T09:08:58;100070.53;;;35.20;45.42
23619;BME280;18207;32.078;34.818;2022-07-04T09:11:30;100066.41;;;35.21;45.57
23619;BME280;18207;32.078;34.818;2022-07-04T09:14:03;100056.94;;;35.24;45.32
23619;BME280;18207;32.078;34.818;2022-07-04T09:16:34;100061.38;;;35.25;45.44
23619;BME280;18207;32.078;34.818;2022-07-04T09:19:14;100064.59;;;35.27;44.93
23619;BME280;18207;32.078;34.818;2022-07-04T09:21:49;100071.13;;;35.27;44.68
23619;BME280;18207;32.078;34.818;2022-07-04T09:24:44;100069.88;;;35.28;45.14
23619;BME280;18207;32.078;34.818;2022-07-04T09:27:32;100071.91;;;35.28;45.35
23619;BME280;18207;32.078;34.818;2022-07-04T09:30:08;100068.16;;;35.31;45.43
23619;BME280;18207;32.078;34.818;2022-07-04T09:32:43;100072.16;;;35.33;44.83
23619;BME280;18207;32.078;34.818;2022-07-04T09:35:18;100075.38;;;35.35;45.32
23619;BME280;18207;32.078;34.818;2022-07-04T09:37:51;100072.53;;;35.35;44.83
23619;BME280;18207;32.078;34.818;2022-07-04T09:40:25;100077.00;;;35.36;44.74
23619;BME280;18207;32.078;34.818;2022-07-04T09:42:58;100066.34;;;35.37;45.16
23619;BME280;18207;32.078;34.818;2022-07-04T09:45:32;100067.59;;;35.36;44.63
23619;BME280;18207;32.078;34.818;2022-07-04T09:48:04;100067.16;;;35.37;44.92
23619;BME280;18207;32.078;34.818;2022-07-04T09:50:35;100066.69;;;35.39;44.70
23619;BME280;18207;32.078;34.818;2022-07-04T09:53:06;100065.09;;;35.38;44.89
23619;BME280;18207;32.078;34.818;2022-07-04T09:55:39;100065.91;;;35.38;44.35
23619;BME280;18207;32.078;34.818;2022-07-04T09:58:12;100066.69;;;35.39;44.41
23619;BME280;18207;32.078;34.818;2022-07-04T10:00:47;100071.94;;;35.40;44.44
23619;BME280;18207;32.078;34.818;2022-07-04T10:03:23;100068.66;;;35.42;44.66
23619;BME280;18207;32.078;34.818;2022-07-04T10:06:04;100063.31;;;35.44;44.62
23619;BME280;18207;32.078;34.818;2022-07-04T10:08:36;100061.59;;;35.46;45.03
23619;BME280;18207;32.078;34.818;2022-07-04T10:11:07;100061.13;;;35.48;44.93
23619;BME280;18207;32.078;34.818;2022-07-04T10:13:46;100056.22;;;35.48;44.44
23619;BME280;18207;32.078;34.818;2022-07-04T10:16:21;100057.78;;;35.49;44.80
23619;BME280;18207;32.078;34.818;2022-07-04T10:18:54;100052.53;;;35.48;44.31
23619;BME280;18207;32.078;34.818;2022-07-04T10:21:25;100061.94;;;35.48;44.30
23619;BME280;18207;32.078;34.818;2022-07-04T10:23:56;100057.78;;;35.49;44.41
23619;BME280;18207;32.078;34.818;2022-07-04T10:26:29;100061.84;;;35.52;44.80
23619;BME280;18207;32.078;34.818;2022-07-04T10:29:00;100059.78;;;35.52;44.38
23619;BME280;18207;32.078;34.818;2022-07-04T10:31:35;100067.09;;;35.53;44.39
23619;BME280;18207;32.078;34.818;2022-07-04T10:34:06;100059.34;;;35.54;44.64
23619;BME280;18207;32.078;34.818;2022-07-04T10:36:38;100051.56;;;35.54;44.34
23619;BME280;18207;32.078;34.818;2022-07-04T10:39:21;100063.47;;;35.53;44.95
23619;BME280;18207;32.078;34.818;2022-07-04T10:41:59;100056.13;;;35.52;44.38
23619;BME280;18207;32.078;34.818;2022-07-04T10:44:31;100058.19;;;35.51;44.66
23619;BME280;18207;32.078;34.818;2022-07-04T10:47:22;100063.47;;;35.53;45.01
23619;BME280;18207;32.078;34.818;2022-07-04T10:49:56;100065.84;;;35.54;44.84
23619;BME280;18207;32.078;34.818;2022-07-04T10:52:28;100066.66;;;35.55;44.40
23619;BME280;18207;32.078;34.818;2022-07-04T10:55:11;100061.28;;;35.57;44.84
23619;BME280;18207;32.078;34.818;2022-07-04T10:57:43;100066.22;;;35.56;44.80
23619;BME280;18207;32.078;34.818;2022-07-04T11:00:14;100064.13;;;35.57;44.78
23619;BME280;18207;32.078;34.818;2022-07-04T11:02:48;100068.59;;;35.58;44.31
23619;BME280;18207;32.078;34.818;2022-07-04T11:05:31;100061.63;;;35.59;44.81
23619;BME280;18207;32.078;34.818;2022-07-04T11:08:03;100060.38;;;35.60;44.17
23619;BME280;18207;32.078;34.818;2022-07-04T11:10:38;100058.31;;;35.60;44.17
23619;BME280;18207;32.078;34.818;2022-07-04T11:13:19;100060.72;;;35.62;44.44
23619;BME280;18207;32.078;34.818;2022-07-04T11:16:05;100057.88;;;35.62;44.73
23619;BME280;18207;32.078;34.818;2022-07-04T11:18:47;100062.34;;;35.63;44.25
23619;BME280;18207;32.078;34.818;2022-07-04T11:21:23;100063.94;;;35.64;44.71
23619;BME280;18207;32.078;34.818;2022-07-04T11:23:55;100060.63;;;35.65;44.25
23619;BME280;18207;32.078;34.818;2022-07-04T11:26:27;100064.25;;;35.66;44.42
23619;BME280;18207;32.078;34.818;2022-07-04T11:28:58;100062.22;;;35.66;44.69
23619;BME280;18207;32.078;34.818;2022-07-04T11:31:37;100060.16;;;35.67;44.71
23619;BME280;18207;32.078;34.818;2022-07-04T11:34:12;100065.88;;;35.67;44.17
23619;BME280;18207;32.078;34.818;2022-07-04T11:36:45;100054.44;;;35.67;44.25
23619;BME280;18207;32.078;34.818;2022-07-04T11:39:17;100049.53;;;35.67;44.79
23619;BME280;18207;32.078;34.818;2022-07-04T11:41:51;100058.91;;;35.68;44.02
23619;BME280;18207;32.078;34.818;2022-07-04T11:44:43;100053.66;;;35.66;44.54
23619;BME280;18207;32.078;34.818;2022-07-04T11:47:35;100066.69;;;35.67;44.60
23619;BME280;18207;32.078;34.818;2022-07-04T11:50:12;100059.38;;;35.66;44.29
23619;BME280;18207;32.078;34.818;2022-07-04T11:52:47;100059.38;;;35.66;44.46
23619;BME280;18207;32.078;34.818;2022-07-04T11:55:53;100060.16;;;35.67;44.12
23619;BME280;18207;32.078;34.818;2022-07-04T11:58:25;100065.88;;;35.67;44.63
23619;BME280;18207;32.078;34.818;2022-07-04T12:00:56;100058.53;;;35.66;43.77
23619;BME280;18207;32.078;34.818;2022-07-04T12:03:27;100057.75;;;35.65;44.49
23619;BME280;18207;32.078;34.818;2022-07-04T12:06:05;100060.16;;;35.67;44.48
23619;BME280;18207;32.078;34.818;2022-07-04T12:08:43;100059.81;;;35.65;43.83
23619;BME280;18207;32.078;34.818;2022-07-04T12:11:14;100065.19;;;35.63;44.29
23619;BME280;18207;32.078;34.818;2022-07-04T12:13:45;100052.59;;;35.60;44.21
23619;BME280;18207;32.078;34.818;2022-07-04T12:16:17;100058.31;;;35.60;44.09
23619;BME280;18207;32.078;34.818;2022-07-04T12:18:48;100061.63;;;35.59;43.80
23619;BME280;18207;32.078;34.818;2022-07-04T12:21:22;100052.25;;;35.58;43.93
23619;BME280;18207;32.078;34.818;2022-07-04T12:23:54;100055.13;;;35.58;43.92
23619;BME280;18207;32.078;34.818;2022-07-04T12:26:41;100046.19;;;35.56;43.65
23619;BME280;18207;32.078;34.818;2022-07-04T12:29:22;100045.38;;;35.56;44.27
23619;BME280;18207;32.078;34.818;2022-07-04T12:31:59;100049.50;;;35.55;44.21
23619;BME280;18207;32.078;34.818;2022-07-04T12:34:31;100052.34;;;35.55;43.65
23619;BME280;18207;32.078;34.818;2022-07-04T12:37:09;100052.34;;;35.55;43.66
23619;BME280;18207;32.078;34.818;2022-07-04T12:39:43;100051.56;;;35.54;43.68
23619;BME280;18207;32.078;34.818;2022-07-04T12:42:16;100048.69;;;35.54;43.65
23619;BME280;18207;32.078;34.818;2022-07-04T12:44:48;100047.56;;;35.52;44.28
23619;BME280;18207;32.078;34.818;2022-07-04T12:47:21;100047.56;;;35.52;44.38
23619;BME280;18207;32.078;34.818;2022-07-04T12:50:11;100049.59;;;35.51;44.07
23619;BME280;18207;32.078;34.818;2022-07-04T12:52:45;100045.56;;;35.49;43.91
23619;BME280;18207;32.078;34.818;2022-07-04T12:55:17;100041.56;;;35.46;43.87
23619;BME280;18207;32.078;34.818;2022-07-04T12:57:49;100046.94;;;35.44;44.23
23619;BME280;18207;32.078;34.818;2022-07-04T13:00:20;100038.00;;;35.42;44.20
23619;BME280;18207;32.078;34.818;2022-07-04T13:03:07;100044.63;;;35.39;44.00
23619;BME280;18207;32.078;34.818;2022-07-04T13:05:39;100044.63;;;35.39;44.26
23619;BME280;18207;32.078;34.818;2022-07-04T13:08:13;100054.47;;;35.38;43.59
23619;BME280;18207;32.078;34.818;2022-07-04T13:10:44;100044.28;;;35.37;44.22
23619;BME280;18207;32.078;34.818;2022-07-04T13:13:15;100044.28;;;35.37;43.99